createdAt,value
2019-03-26T08:38:49.101Z,7.03
2019-03-26T08:41:18.695Z,7.60
2019-03-26T08:43:48.121Z,7.50
2019-03-26T08:46:17.625Z,6.80
2019-03-26T08:48:47.215Z,6.47
2019-03-26T08:51:16.712Z,7.62
2019-03-26T08:53:46.230Z,6.47
2019-03-26T08:56:15.634Z,7.12
2019-03-26T08:58:45.078Z,7.05
2019-03-26T09:01:14.731Z,6.80
2019-03-26T09:03:44.221Z,6.60
2019-03-26T09:06:13.807Z,6.55
2019-03-26T09:08:43.247Z,6.60
2019-03-26T09:11:12.766Z,7.10
2019-03-26T09:13:42.272Z,7.00
2019-03-26T09:16:11.764Z,6.85
2019-03-26T09:18:41.209Z,6.87
2019-03-26T09:21:10.658Z,6.78
2019-03-26T09:23:40.109Z,5.42
2019-03-26T09:26:09.603Z,5.08
2019-03-26T09:28:39.028Z,5.47
2019-03-26T09:31:09.299Z,5.83
2019-03-26T09:33:38.783Z,5.80
2019-03-26T09:36:08.230Z,5.55
2019-03-26T09:38:39.265Z,4.97
2019-03-26T09:41:08.791Z,4.62
2019-03-26T09:43:38.375Z,4.55
2019-03-26T09:46:07.759Z,4.70
2019-03-26T09:48:37.282Z,5.50
2019-03-26T09:51:06.783Z,5.45
2019-03-26T09:53:36.226Z,6.33
2019-03-26T09:56:05.733Z,5.45
2019-03-26T09:58:35.222Z,5.87
2019-03-26T10:01:04.660Z,6.10
2019-03-26T10:03:34.146Z,6.40
2019-03-26T10:06:03.588Z,6.33
2019-03-26T10:08:33.021Z,5.40
2019-03-26T10:11:03.818Z,5.05
2019-03-26T10:13:36.156Z,4.65
2019-03-26T10:16:04.365Z,4.87
2019-03-26T10:18:33.818Z,4.30
2019-03-26T10:21:03.306Z,5.58
2019-03-26T10:23:32.812Z,3.92
2019-03-26T10:26:02.321Z,4.47
2019-03-26T10:28:31.755Z,4.75
2019-03-26T10:31:01.266Z,4.22
2019-03-26T10:33:30.775Z,3.83
2019-03-26T10:36:00.271Z,3.90
2019-03-26T10:38:29.776Z,3.75
2019-03-26T10:40:59.196Z,4.30
2019-03-26T10:43:28.695Z,3.85
2019-03-26T10:45:58.207Z,4.17
2019-03-26T10:48:27.633Z,4.45
2019-03-26T10:50:57.208Z,4.30
2019-03-26T10:53:26.724Z,4.03
2019-03-26T10:55:56.219Z,4.30
2019-03-26T10:58:25.643Z,3.67
2019-03-26T11:00:55.065Z,3.55
2019-03-26T11:03:24.508Z,4.62
2019-03-26T11:05:54.036Z,4.12
2019-03-26T11:08:23.533Z,3.50
2019-03-26T11:10:53.036Z,3.62
2019-03-26T11:13:22.601Z,4.67
2019-03-26T11:15:51.955Z,3.85
2019-03-26T11:18:21.549Z,3.45
2019-03-26T11:21:01.884Z,2.83
2019-03-26T11:23:22.097Z,2.87
2019-03-26T11:25:51.593Z,3.65
2019-03-26T11:28:21.103Z,2.98
2019-03-26T11:30:50.679Z,3.12
2019-03-26T11:33:20.215Z,3.30
2019-03-26T11:35:49.935Z,4.08
2019-03-26T11:38:19.451Z,4.12
2019-03-26T11:40:48.943Z,3.77
2019-03-26T11:43:18.410Z,3.77
2019-03-26T11:45:47.984Z,3.90
2019-03-26T12:01:42.277Z,15.83
2019-03-26T12:04:11.850Z,11.93
2019-03-26T12:06:41.353Z,10.53
2019-03-26T12:11:38.211Z,9.23
2019-03-26T12:14:07.718Z,8.88
2019-03-26T12:16:37.406Z,7.75
2019-03-26T12:20:11.641Z,8.25
2019-03-26T12:22:42.407Z,6.55
2019-03-26T12:25:41.481Z,7.60
2019-03-26T12:30:35.849Z,6.70
2019-03-26T12:33:06.875Z,8.23
2019-03-26T12:35:37.492Z,6.05
2019-03-26T12:38:16.392Z,7.00
2019-03-26T12:40:47.038Z,5.95
2019-03-26T12:43:18.714Z,5.30
2019-03-26T12:45:49.252Z,5.28
2019-03-26T12:48:19.941Z,5.72
2019-03-26T12:50:50.556Z,5.30
2019-03-26T12:53:21.183Z,5.35
2019-03-26T12:55:51.704Z,5.10
2019-03-26T12:58:31.687Z,4.72
2019-03-26T13:00:54.620Z,4.50
2019-03-26T13:17:51.907Z,5.30
2019-03-26T13:20:22.587Z,5.15
2019-03-26T13:22:53.219Z,5.60
2019-03-26T13:25:23.664Z,5.35
2019-03-26T13:27:54.359Z,5.03
2019-03-26T13:30:24.961Z,4.90
2019-03-26T13:32:55.510Z,4.85
2019-03-26T13:35:26.100Z,4.53
2019-03-26T13:37:56.716Z,4.95
2019-03-26T13:40:27.923Z,4.53
2019-03-26T13:42:58.742Z,5.30
2019-03-26T13:45:29.285Z,4.90
2019-03-26T13:47:59.901Z,4.17
2019-03-26T13:50:30.590Z,4.62
2019-03-26T13:53:01.266Z,4.65
2019-03-26T13:55:31.920Z,3.90
2019-03-26T13:58:02.649Z,4.25
2019-03-26T14:00:35.666Z,5.00
2019-03-26T14:03:06.419Z,4.72
2019-03-26T14:05:37.011Z,4.25
2019-03-26T14:08:07.731Z,4.15
2019-03-26T14:10:41.143Z,4.22
2019-03-26T14:13:10.734Z,3.80
2019-03-26T14:15:41.405Z,4.22
2019-03-26T14:18:12.058Z,4.45
2019-03-26T14:20:42.573Z,3.62
2019-03-26T14:23:13.235Z,4.15
2019-03-26T14:25:43.856Z,4.72
2019-03-26T14:28:14.488Z,4.05
2019-03-26T14:30:45.256Z,3.85
2019-03-26T14:33:15.840Z,4.05
2019-03-26T14:35:46.489Z,3.42
2019-03-26T14:38:17.276Z,4.20
2019-03-26T14:40:54.463Z,4.08
2019-03-26T14:43:19.988Z,4.15
2019-03-26T14:45:50.660Z,3.45
2019-03-26T14:48:21.230Z,4.25
2019-03-26T14:50:51.817Z,3.87
2019-03-26T14:53:22.382Z,4.55
2019-03-26T14:55:54.245Z,3.50
2019-03-26T14:58:24.975Z,4.78
2019-03-26T15:00:55.544Z,4.35
2019-03-26T15:03:26.331Z,4.30
2019-03-26T15:05:57.017Z,4.00
2019-03-26T15:08:27.591Z,4.20
2019-03-26T15:11:07.933Z,4.37
2019-03-26T15:13:30.424Z,4.80
2019-03-26T15:16:01.075Z,4.25
2019-03-26T15:18:31.708Z,4.17
2019-03-26T15:21:02.451Z,5.17
2019-03-26T15:23:33.250Z,5.00
2019-03-26T15:26:04.495Z,4.70
2019-03-26T15:28:35.315Z,5.20
2019-03-26T15:31:05.885Z,5.12
2019-03-26T15:33:36.689Z,4.87
2019-03-26T15:36:07.216Z,5.33
2019-03-26T15:38:37.932Z,5.95
2019-03-26T15:41:20.697Z,5.83
2019-03-26T15:43:41.059Z,5.65
2019-03-26T15:46:11.949Z,6.05
2019-03-26T15:48:42.671Z,6.47
2019-03-26T15:51:13.287Z,6.00
2019-03-26T15:53:43.963Z,7.37
2019-03-26T15:56:14.721Z,6.67
2019-03-26T15:58:45.312Z,7.00
2019-03-26T16:01:15.861Z,8.03
2019-03-26T16:03:46.464Z,7.83
2019-03-26T16:06:17.010Z,8.15
2019-03-26T16:08:47.844Z,7.30
2019-03-26T16:11:18.549Z,8.45
2019-03-26T16:13:49.504Z,7.58
2019-03-26T16:16:21.025Z,8.00
2019-03-26T16:18:51.673Z,7.85
2019-03-26T16:21:22.357Z,8.25
2019-03-26T16:23:53.402Z,8.50
2019-03-26T16:26:24.196Z,8.35
2019-03-26T16:28:55.104Z,7.42
2019-03-26T16:31:25.888Z,8.35
2019-03-26T16:33:56.910Z,7.58
2019-03-26T16:36:28.189Z,6.90
2019-03-26T16:38:58.919Z,7.35
2019-03-26T16:41:29.582Z,7.85
2019-03-26T16:44:00.428Z,7.80
2019-03-26T16:46:31.499Z,7.23
2019-03-26T16:49:02.462Z,7.40
2019-03-26T16:51:33.498Z,7.83
2019-03-26T16:54:04.579Z,7.60
2019-03-26T16:56:35.587Z,6.87
2019-03-26T16:59:06.526Z,7.33
2019-03-26T17:01:37.465Z,7.83
2019-03-26T17:04:08.552Z,7.87
2019-03-26T17:06:39.635Z,8.07
2019-03-26T17:09:10.920Z,8.03
2019-03-26T17:11:42.046Z,8.80
2019-03-26T17:14:13.255Z,8.10
2019-03-26T17:16:44.218Z,8.80
2019-03-26T17:19:15.703Z,8.23
2019-03-26T17:21:46.920Z,8.33
2019-03-26T17:24:18.281Z,8.60
2019-03-26T17:26:49.380Z,8.37
2019-03-26T17:29:20.374Z,9.03
2019-03-26T17:31:51.460Z,9.33
2019-03-26T17:34:22.385Z,10.43
2019-03-26T17:36:53.401Z,9.90
2019-03-26T17:39:24.401Z,9.90
2019-03-26T17:41:56.047Z,10.57
2019-03-26T17:44:28.115Z,10.27
2019-03-26T17:46:59.135Z,9.97
2019-03-26T17:49:30.623Z,12.43
2019-03-26T17:52:01.773Z,14.10
2019-03-26T17:54:33.760Z,15.17
2019-03-26T17:57:04.787Z,17.20
2019-03-26T17:59:35.904Z,17.63
2019-03-26T18:02:07.037Z,18.60
2019-03-26T18:04:38.109Z,19.20
2019-03-26T18:07:09.062Z,19.93
2019-03-26T18:09:40.065Z,21.07
2019-03-26T18:12:11.181Z,20.90
2019-03-26T18:14:43.103Z,16.40
2019-03-26T18:17:14.087Z,14.00
2019-03-26T18:19:45.087Z,12.87
2019-03-26T18:22:16.128Z,13.00
2019-03-26T18:24:47.127Z,11.23
2019-03-26T18:27:18.681Z,14.20
2019-03-26T18:31:22.778Z,13.13
2019-03-26T18:33:53.647Z,12.00
2019-03-26T18:36:24.328Z,13.65
2019-03-26T18:38:54.962Z,12.93
2019-03-26T18:41:25.594Z,12.33
2019-03-26T18:43:57.221Z,11.30
2019-03-26T18:46:27.852Z,11.78
2019-03-26T18:48:58.475Z,12.33
2019-03-26T18:51:29.108Z,11.63
2019-03-26T18:53:59.746Z,10.13
2019-03-26T18:56:30.312Z,10.58
2019-03-26T18:59:00.956Z,9.55
2019-03-26T19:01:31.503Z,9.75
2019-03-26T19:04:02.483Z,8.80
2019-03-26T19:06:34.142Z,9.60
2019-03-26T19:09:05.709Z,9.93
2019-03-26T19:11:37.360Z,9.58
2019-03-26T19:14:08.065Z,10.08
2019-03-26T19:16:38.943Z,10.53
2019-03-26T19:19:09.547Z,9.93
2019-03-26T19:21:40.198Z,12.07
2019-03-26T19:24:10.863Z,10.88
2019-03-26T19:26:41.523Z,10.40
2019-03-26T19:29:12.158Z,10.82
2019-03-26T19:31:42.956Z,10.45
2019-03-26T19:34:14.169Z,10.50
2019-03-26T19:36:44.912Z,11.22
